sensor_id;sensor_type;location;lat;lon;timestamp;temperature;humidity
3715;DHT22;1873;49.988;8.674;2022-11-24T00:01:28;7.60;99.90
3715;DHT22;1873;49.988;8.674;2022-11-24T00:03:58;7.50;99.90
3715;DHT22;1873;49.988;8.674;2022-11-24T00:06:29;7.50;99.90
3715;DHT22;1873;49.988;8.674;2022-11-24T00:08:58;7.50;99.90
3715;DHT22;1873;49.988;8.674;2022-11-24T00:11:28;7.50;99.90
3715;DHT22;1873;49.988;8.674;2022-11-24T00:13:57;7.50;99.90
3715;DHT22;1873;49.988;8.674;2022-11-24T00:16:30;7.50;99.90
3715;DHT22;1873;49.988;8.674;2022-11-24T00:19:01;7.50;99.90
3715;DHT22;1873;49.988;8.674;2022-11-24T00:21:31;7.40;99.90
3715;DHT22;1873;49.988;8.674;2022-11-24T00:24:00;7.40;99.90
3715;DHT22;1873;49.988;8.674;2022-11-24T00:26:29;7.50;99.90
3715;DHT22;1873;49.988;8.674;2022-11-24T00:29:00;7.40;99.90
3715;DHT22;1873;49.988;8.674;2022-11-24T00:31:30;7.50;99.90
3715;DHT22;1873;49.988;8.674;2022-11-24T00:33:59;7.50;99.90
3715;DHT22;1873;49.988;8.674;2022-11-24T00:36:32;7.50;99.90
3715;DHT22;1873;49.988;8.674;2022-11-24T00:39:04;7.50;99.90
3715;DHT22;1873;49.988;8.674;2022-11-24T00:41:32;7.50;99.90
3715;DHT22;1873;49.988;8.674;2022-11-24T00:44:00;7.50;99.90
3715;DHT22;1873;49.988;8.674;2022-11-24T00:46:29;7.50;99.90
3715;DHT22;1873;49.988;8.674;2022-11-24T00:48:57;7.50;99.90
3715;DHT22;1873;49.988;8.674;2022-11-24T00:51:27;7.50;99.90
3715;DHT22;1873;49.988;8.674;2022-11-24T00:53:58;7.50;99.90
3715;DHT22;1873;49.988;8.674;2022-11-24T00:56:27;7.50;99.90
3715;DHT22;1873;49.988;8.674;2022-11-24T00:58:56;7.40;99.90
3715;DHT22;1873;49.988;8.674;2022-11-24T01:01:26;7.40;99.90
3715;DHT22;1873;49.988;8.674;2022-11-24T01:03:57;7.40;99.90
3715;DHT22;1873;49.988;8.674;2022-11-24T01:06:28;7.40;99.90
3715;DHT22;1873;49.988;8.674;2022-11-24T01:08:58;7.40;99.90
3715;DHT22;1873;49.988;8.674;2022-11-24T01:11:28;7.30;99.90
3715;DHT22;1873;49.988;8.674;2022-11-24T01:14:18;7.40;99.90
3715;DHT22;1873;49.988;8.674;2022-11-24T01:16:46;7.40;99.90
3715;DHT22;1873;49.988;8.674;2022-11-24T01:19:14;7.50;99.90
3715;DHT22;1873;49.988;8.674;2022-11-24T01:21:43;7.50;99.90
3715;DHT22;1873;49.988;8.674;2022-11-24T01:24:14;7.50;99.90
3715;DHT22;1873;49.988;8.674;2022-11-24T01:26:42;7.60;99.90
3715;DHT22;1873;49.988;8.674;2022-11-24T01:29:10;7.60;99.90
3715;DHT22;1873;49.988;8.674;2022-11-24T01:31:39;7.60;99.90
3715;DHT22;1873;49.988;8.674;2022-11-24T01:34:07;7.60;99.90
3715;DHT22;1873;49.988;8.674;2022-11-24T01:36:35;7.60;99.90
3715;DHT22;1873;49.988;8.674;2022-11-24T01:39:03;7.60;99.90
3715;DHT22;1873;49.988;8.674;2022-11-24T01:41:34;7.60;99.90
3715;DHT22;1873;49.988;8.674;2022-11-24T01:44:21;7.60;99.90
3715;DHT22;1873;49.988;8.674;2022-11-24T01:46:52;7.60;99.90
3715;DHT22;1873;49.988;8.674;2022-11-24T01:49:24;7.60;99.90
3715;DHT22;1873;49.988;8.674;2022-11-24T01:51:56;7.60;99.90
3715;DHT22;1873;49.988;8.674;2022-11-24T01:54:29;7.60;99.90
3715;DHT22;1873;49.988;8.674;2022-11-24T01:57:04;7.60;99.90
3715;DHT22;1873;49.988;8.674;2022-11-24T01:59:35;7.60;99.90
3715;DHT22;1873;49.988;8.674;2022-11-24T02:02:03;7.60;99.90
3715;DHT22;1873;49.988;8.674;2022-11-24T02:04:33;7.60;99.90
3715;DHT22;1873;49.988;8.674;2022-11-24T02:07:04;7.60;99.90
3715;DHT22;1873;49.988;8.674;2022-11-24T02:09:38;7.60;99.90
3715;DHT22;1873;49.988;8.674;2022-11-24T02:12:09;7.60;99.90
3715;DHT22;1873;49.988;8.674;2022-11-24T02:14:39;7.60;99.90
3715;DHT22;1873;49.988;8.674;2022-11-24T02:17:09;7.60;99.90
3715;DHT22;1873;49.988;8.674;2022-11-24T02:19:50;7.60;99.90
3715;DHT22;1873;49.988;8.674;2022-11-24T02:22:26;7.60;99.90
3715;DHT22;1873;49.988;8.674;2022-11-24T02:25:00;7.50;99.90
3715;DHT22;1873;49.988;8.674;2022-11-24T02:27:31;7.50;99.90
3715;DHT22;1873;49.988;8.674;2022-11-24T02:30:00;7.50;99.90
3715;DHT22;1873;49.988;8.674;2022-11-24T02:32:29;7.50;99.90
3715;DHT22;1873;49.988;8.674;2022-11-24T02:34:59;7.50;99.90
3715;DHT22;1873;49.988;8.674;2022-11-24T02:37:28;7.50;99.90
3715;DHT22;1873;49.988;8.674;2022-11-24T02:39:56;7.50;99.90
3715;DHT22;1873;49.988;8.674;2022-11-24T02:42:25;7.50;99.90
3715;DHT22;1873;49.988;8.674;2022-11-24T02:44:58;7.50;99.90
3715;DHT22;1873;49.988;8.674;2022-11-24T02:47:28;7.50;99.90
3715;DHT22;1873;49.988;8.674;2022-11-24T02:49:56;7.50;99.90
3715;DHT22;1873;49.988;8.674;2022-11-24T02:52:25;7.50;99.90
3715;DHT22;1873;49.988;8.674;2022-11-24T02:54:53;7.50;99.90
3715;DHT22;1873;49.988;8.674;2022-11-24T02:57:21;7.50;99.90
3715;DHT22;1873;49.988;8.674;2022-11-24T02:59:49;7.50;99.90
3715;DHT22;1873;49.988;8.674;2022-11-24T03:02:19;7.50;99.90
3715;DHT22;1873;49.988;8.674;2022-11-24T03:04:47;7.50;99.90
3715;DHT22;1873;49.988;8.674;2022-11-24T03:07:16;7.50;99.90
3715;DHT22;1873;49.988;8.674;2022-11-24T03:09:44;7.50;99.90
3715;DHT22;1873;49.988;8.674;2022-11-24T03:12:13;7.50;99.90
3715;DHT22;1873;49.988;8.674;2022-11-24T03:14:41;7.50;99.90
3715;DHT22;1873;49.988;8.674;2022-11-24T03:17:10;7.50;99.90
3715;DHT22;1873;49.988;8.674;2022-11-24T03:19:39;7.40;99.90
3715;DHT22;1873;49.988;8.674;2022-11-24T03:22:08;7.50;99.90
3715;DHT22;1873;49.988;8.674;2022-11-24T03:24:36;7.40;99.90
3715;DHT22;1873;49.988;8.674;2022-11-24T03:27:04;7.40;99.90
3715;DHT22;1873;49.988;8.674;2022-11-24T03:29:32;7.40;99.90
3715;DHT22;1873;49.988;8.674;2022-11-24T03:32:01;7.40;99.90
3715;DHT22;1873;49.988;8.674;2022-11-24T03:34:29;7.40;99.90
3715;DHT22;1873;49.988;8.674;2022-11-24T03:37:01;7.40;99.90
3715;DHT22;1873;49.988;8.674;2022-11-24T03:39:30;7.40;99.90
3715;DHT22;1873;49.988;8.674;2022-11-24T03:41:58;7.60;99.90
3715;DHT22;1873;49.988;8.674;2022-11-24T03:44:26;7.40;99.90
3715;DHT22;1873;49.988;8.674;2022-11-24T03:46:54;7.30;99.90
3715;DHT22;1873;49.988;8.674;2022-11-24T03:49:23;7.30;99.90
3715;DHT22;1873;49.988;8.674;2022-11-24T03:51:51;7.30;99.90
3715;DHT22;1873;49.988;8.674;2022-11-24T03:54:23;7.30;99.90
3715;DHT22;1873;49.988;8.674;2022-11-24T03:56:51;7.30;99.90
3715;DHT22;1873;49.988;8.674;2022-11-24T03:59:19;7.30;99.90
3715;DHT22;1873;49.988;8.674;2022-11-24T04:01:48;7.40;99.90
3715;DHT22;1873;49.988;8.674;2022-11-24T04:04:16;7.30;99.90
3715;DHT22;1873;49.988;8.674;2022-11-24T04:06:44;7.40;99.90
3715;DHT22;1873;49.988;8.674;2022-11-24T04:09:13;7.40;99.90
3715;DHT22;1873;49.988;8.674;2022-11-24T04:11:42;7.40;99.90
3715;DHT22;1873;49.988;8.674;2022-11-24T04:14:27;7.40;99.90
3715;DHT22;1873;49.988;8.674;2022-11-24T04:16:56;7.50;99.90
3715;DHT22;1873;49.988;8.674;2022-11-24T04:19:24;7.50;99.90
3715;DHT22;1873;49.988;8.674;2022-11-24T04:21:52;7.50;99.90
3715;DHT22;1873;49.988;8.674;2022-11-24T04:24:20;7.50;99.90
3715;DHT22;1873;49.988;8.674;2022-11-24T04:26:50;7.60;99.90
3715;DHT22;1873;49.988;8.674;2022-11-24T04:29:19;7.60;99.90
3715;DHT22;1873;49.988;8.674;2022-11-24T04:31:46;7.60;99.90
3715;DHT22;1873;49.988;8.674;2022-11-24T04:34:15;7.60;99.90
3715;DHT22;1873;49.988;8.674;2022-11-24T04:36:43;7.70;99.90
3715;DHT22;1873;49.988;8.674;2022-11-24T04:39:11;7.70;99.90
3715;DHT22;1873;49.988;8.674;2022-11-24T04:41:55;7.80;99.90
3715;DHT22;1873;49.988;8.674;2022-11-24T04:44:23;7.90;99.90
3715;DHT22;1873;49.988;8.674;2022-11-24T04:46:51;7.90;99.90
3715;DHT22;1873;49.988;8.674;2022-11-24T04:49:20;8.00;99.90
3715;DHT22;1873;49.988;8.674;2022-11-24T04:51:48;8.00;99.90
3715;DHT22;1873;49.988;8.674;2022-11-24T04:54:17;8.00;99.90
3715;DHT22;1873;49.988;8.674;2022-11-24T04:56:49;8.00;99.90
3715;DHT22;1873;49.988;8.674;2022-11-24T04:59:19;8.00;99.90
3715;DHT22;1873;49.988;8.674;2022-11-24T05:01:47;8.10;99.90
3715;DHT22;1873;49.988;8.674;2022-11-24T05:04:15;8.10;99.90
3715;DHT22;1873;49.988;8.674;2022-11-24T05:06:46;8.00;99.90
3715;DHT22;1873;49.988;8.674;2022-11-24T05:09:15;8.10;99.90
3715;DHT22;1873;49.988;8.674;2022-11-24T05:11:43;8.10;99.90
3715;DHT22;1873;49.988;8.674;2022-11-24T05:14:11;8.10;99.90
3715;DHT22;1873;49.988;8.674;2022-11-24T05:16:41;8.10;99.90
3715;DHT22;1873;49.988;8.674;2022-11-24T05:19:09;8.10;99.90
3715;DHT22;1873;49.988;8.674;2022-11-24T05:21:38;8.20;99.90
3715;DHT22;1873;49.988;8.674;2022-11-24T05:24:07;8.20;99.90
3715;DHT22;1873;49.988;8.674;2022-11-24T05:26:36;8.20;99.90
3715;DHT22;1873;49.988;8.674;2022-11-24T05:29:04;8.20;99.90
3715;DHT22;1873;49.988;8.674;2022-11-24T05:31:32;8.20;99.90
3715;DHT22;1873;49.988;8.674;2022-11-24T05:34:02;8.20;99.90
3715;DHT22;1873;49.988;8.674;2022-11-24T05:36:30;8.20;99.90
3715;DHT22;1873;49.988;8.674;2022-11-24T05:39:15;8.20;99.90
3715;DHT22;1873;49.988;8.674;2022-11-24T05:41:43;8.30;99.90
3715;DHT22;1873;49.988;8.674;2022-11-24T05:44:12;8.20;99.90
3715;DHT22;1873;49.988;8.674;2022-11-24T05:46:40;8.30;99.90
3715;DHT22;1873;49.988;8.674;2022-11-24T05:49:10;8.30;99.90
3715;DHT22;1873;49.988;8.674;2022-11-24T05:51:38;8.30;99.90
3715;DHT22;1873;49.988;8.674;2022-11-24T05:54:06;8.30;99.90
3715;DHT22;1873;49.988;8.674;2022-11-24T05:56:34;8.30;99.90
3715;DHT22;1873;49.988;8.674;2022-11-24T05:59:02;8.30;99.90
3715;DHT22;1873;49.988;8.674;2022-11-24T06:01:35;8.30;99.90
3715;DHT22;1873;49.988;8.674;2022-11-24T06:04:04;8.40;99.90
3715;DHT22;1873;49.988;8.674;2022-11-24T06:06:33;8.40;99.90
3715;DHT22;1873;49.988;8.674;2022-11-24T06:09:02;8.40;99.90
3715;DHT22;1873;49.988;8.674;2022-11-24T06:11:30;8.40;99.90
3715;DHT22;1873;49.988;8.674;2022-11-24T06:13:59;8.40;99.90
3715;DHT22;1873;49.988;8.674;2022-11-24T06:16:33;8.30;99.90
3715;DHT22;1873;49.988;8.674;2022-11-24T06:19:02;8.40;99.90
3715;DHT22;1873;49.988;8.674;2022-11-24T06:21:30;8.40;99.90
3715;DHT22;1873;49.988;8.674;2022-11-24T06:24:00;8.40;99.90
3715;DHT22;1873;49.988;8.674;2022-11-24T06:26:28;8.40;99.90
3715;DHT22;1873;49.988;8.674;2022-11-24T06:28:57;8.40;99.90
3715;DHT22;1873;49.988;8.674;2022-11-24T06:31:25;8.40;99.90
3715;DHT22;1873;49.988;8.674;2022-11-24T06:33:54;8.40;99.90
3715;DHT22;1873;49.988;8.674;2022-11-24T06:36:22;8.40;99.90
3715;DHT22;1873;49.988;8.674;2022-11-24T06:38:51;8.50;99.90
3715;DHT22;1873;49.988;8.674;2022-11-24T06:41:20;8.50;99.90
3715;DHT22;1873;49.988;8.674;2022-11-24T06:43:49;8.50;99.90
3715;DHT22;1873;49.988;8.674;2022-11-24T06:46:17;8.50;99.90
3715;DHT22;1873;49.988;8.674;2022-11-24T06:48:46;8.50;99.90
3715;DHT22;1873;49.988;8.674;2022-11-24T06:51:14;8.50;99.90
3715;DHT22;1873;49.988;8.674;2022-11-24T06:53:44;8.50;99.90
3715;DHT22;1873;49.988;8.674;2022-11-24T06:56:14;8.50;99.90
3715;DHT22;1873;49.988;8.674;2022-11-24T06:58:47;8.50;99.90
3715;DHT22;1873;49.988;8.674;2022-11-24T07:01:18;8.50;99.90
3715;DHT22;1873;49.988;8.674;2022-11-24T07:03:47;8.50;99.90
3715;DHT22;1873;49.988;8.674;2022-11-24T07:06:15;8.50;99.90
3715;DHT22;1873;49.988;8.674;2022-11-24T07:08:44;8.50;99.90
3715;DHT22;1873;49.988;8.674;2022-11-24T07:11:14;8.50;99.90
3715;DHT22;1873;49.988;8.674;2022-11-24T07:13:43;8.50;99.90
3715;DHT22;1873;49.988;8.674;2022-11-24T07:16:16;8.40;99.90
3715;DHT22;1873;49.988;8.674;2022-11-24T07:18:45;8.40;99.90
3715;DHT22;1873;49.988;8.674;2022-11-24T07:21:14;8.40;99.90
3715;DHT22;1873;49.988;8.674;2022-11-24T07:23:42;8.40;99.90
3715;DHT22;1873;49.988;8.674;2022-11-24T07:26:10;8.40;99.90
3715;DHT22;1873;49.988;8.674;2022-11-24T07:28:39;8.40;99.90
3715;DHT22;1873;49.988;8.674;2022-11-24T07:31:08;8.40;99.90
3715;DHT22;1873;49.988;8.674;2022-11-24T07:33:38;8.40;99.90
3715;DHT22;1873;49.988;8.674;2022-11-24T07:36:07;8.40;99.90
3715;DHT22;1873;49.988;8.674;2022-11-24T07:38:35;8.40;99.90
3715;DHT22;1873;49.988;8.674;2022-11-24T07:41:06;8.40;99.90
3715;DHT22;1873;49.988;8.674;2022-11-24T07:43:35;8.40;99.90
3715;DHT22;1873;49.988;8.674;2022-11-24T07:46:04;8.40;99.90
3715;DHT22;1873;49.988;8.674;2022-11-24T07:48:33;8.30;99.90
3715;DHT22;1873;49.988;8.674;2022-11-24T07:51:04;8.30;99.90
3715;DHT22;1873;49.988;8.674;2022-11-24T07:53:33;8.30;99.90
3715;DHT22;1873;49.988;8.674;2022-11-24T07:56:02;8.30;99.90
3715;DHT22;1873;49.988;8.674;2022-11-24T07:58:33;8.40;99.90
3715;DHT22;1873;49.988;8.674;2022-11-24T08:01:08;8.40;99.90
3715;DHT22;1873;49.988;8.674;2022-11-24T08:03:37;8.40;99.90
3715;DHT22;1873;49.988;8.674;2022-11-24T08:06:08;8.30;99.90
3715;DHT22;1873;49.988;8.674;2022-11-24T08:08:57;8.30;99.90
3715;DHT22;1873;49.988;8.674;2022-11-24T08:11:26;8.40;99.90
3715;DHT22;1873;49.988;8.674;2022-11-24T08:13:57;8.30;99.90
3715;DHT22;1873;49.988;8.674;2022-11-24T08:16:25;8.40;99.90
3715;DHT22;1873;49.988;8.674;2022-11-24T08:18:54;8.50;99.90
3715;DHT22;1873;49.988;8.674;2022-11-24T08:21:24;8.50;99.90
3715;DHT22;1873;49.988;8.674;2022-11-24T08:23:53;8.40;99.90
3715;DHT22;1873;49.988;8.674;2022-11-24T08:26:23;8.50;99.90
3715;DHT22;1873;49.988;8.674;2022-11-24T08:28:54;8.50;99.90
3715;DHT22;1873;49.988;8.674;2022-11-24T08:31:23;8.50;99.90
3715;DHT22;1873;49.988;8.674;2022-11-24T08:33:54;8.50;99.90
3715;DHT22;1873;49.988;8.674;2022-11-24T08:36:24;8.40;99.90
3715;DHT22;1873;49.988;8.674;2022-11-24T08:38:54;8.40;99.90
3715;DHT22;1873;49.988;8.674;2022-11-24T08:41:23;8.40;99.90
3715;DHT22;1873;49.988;8.674;2022-11-24T08:43:52;8.50;99.90
3715;DHT22;1873;49.988;8.674;2022-11-24T08:46:21;8.50;99.90
3715;DHT22;1873;49.988;8.674;2022-11-24T08:48:51;8.50;99.90
3715;DHT22;1873;49.988;8.674;2022-11-24T08:51:21;8.50;99.90
3715;DHT22;1873;49.988;8.674;2022-11-24T08:53:53;8.60;99.90
3715;DHT22;1873;49.988;8.674;2022-11-24T08:56:21;8.50;99.90
3715;DHT22;1873;49.988;8.674;2022-11-24T08:58:50;8.40;99.90
3715;DHT22;1873;49.988;8.674;2022-11-24T09:01:20;8.40;99.90
3715;DHT22;1873;49.988;8.674;2022-11-24T09:03:49;8.30;99.90
3715;DHT22;1873;49.988;8.674;2022-11-24T09:06:19;8.30;99.90
3715;DHT22;1873;49.988;8.674;2022-11-24T09:08:50;8.40;99.90
3715;DHT22;1873;49.988;8.674;2022-11-24T09:11:21;8.50;99.90
3715;DHT22;1873;49.988;8.674;2022-11-24T09:13:50;8.60;99.90
3715;DHT22;1873;49.988;8.674;2022-11-24T09:16:19;8.60;99.90
3715;DHT22;1873;49.988;8.674;2022-11-24T09:18:53;8.60;99.90
3715;DHT22;1873;49.988;8.674;2022-11-24T09:21:22;8.60;99.90
3715;DHT22;1873;49.988;8.674;2022-11-24T09:23:53;8.60;99.90
3715;DHT22;1873;49.988;8.674;2022-11-24T09:26:24;8.70;99.90
3715;DHT22;1873;49.988;8.674;2022-11-24T09:28:54;8.70;99.90
3715;DHT22;1873;49.988;8.674;2022-11-24T09:31:24;8.70;99.90
3715;DHT22;1873;49.988;8.674;2022-11-24T09:33:56;8.70;99.90
3715;DHT22;1873;49.988;8.674;2022-11-24T09:36:25;8.80;99.90
3715;DHT22;1873;49.988;8.674;2022-11-24T09:38:55;8.80;99.90
3715;DHT22;1873;49.988;8.674;2022-11-24T09:44:58;9.00;99.90
3715;DHT22;1873;49.988;8.674;2022-11-24T09:47:35;9.10;99.90
3715;DHT22;1873;49.988;8.674;2022-11-24T09:50:09;9.10;99.90
3715;DHT22;1873;49.988;8.674;2022-11-24T09:52:47;9.00;99.90
3715;DHT22;1873;49.988;8.674;2022-11-24T09:55:43;9.10;99.90
3715;DHT22;1873;49.988;8.674;2022-11-24T09:58:36;9.10;99.90
3715;DHT22;1873;49.988;8.674;2022-11-24T10:01:12;9.20;99.90
3715;DHT22;1873;49.988;8.674;2022-11-24T10:03:43;9.40;99.90
3715;DHT22;1873;49.988;8.674;2022-11-24T10:06:19;9.50;99.90
3715;DHT22;1873;49.988;8.674;2022-11-24T10:09:09;9.60;99.90
3715;DHT22;1873;49.988;8.674;2022-11-24T10:11:44;9.70;99.90
3715;DHT22;1873;49.988;8.674;2022-11-24T10:14:34;9.70;99.90
3715;DHT22;1873;49.988;8.674;2022-11-24T10:17:12;9.70;99.90
3715;DHT22;1873;49.988;8.674;2022-11-24T10:19:50;9.80;99.90
3715;DHT22;1873;49.988;8.674;2022-11-24T10:22:33;9.80;99.90
3715;DHT22;1873;49.988;8.674;2022-11-24T10:25:11;9.70;99.90
3715;DHT22;1873;49.988;8.674;2022-11-24T10:27:44;9.70;99.90
3715;DHT22;1873;49.988;8.674;2022-11-24T10:30:15;9.60;99.90
3715;DHT22;1873;49.988;8.674;2022-11-24T10:32:47;9.60;99.90
3715;DHT22;1873;49.988;8.674;2022-11-24T10:35:18;9.60;99.90
3715;DHT22;1873;49.988;8.674;2022-11-24T10:37:56;9.70;99.90
3715;DHT22;1873;49.988;8.674;2022-11-24T10:40:32;9.80;99.90
3715;DHT22;1873;49.988;8.674;2022-11-24T10:43:23;10.00;99.90
3715;DHT22;1873;49.988;8.674;2022-11-24T10:45:53;10.20;99.90
3715;DHT22;1873;49.988;8.674;2022-11-24T10:48:24;10.30;99.90
3715;DHT22;1873;49.988;8.674;2022-11-24T10:50:56;10.50;99.90
3715;DHT22;1873;49.988;8.674;2022-11-24T10:53:29;10.50;99.90
3715;DHT22;1873;49.988;8.674;2022-11-24T10:56:00;10.50;99.90
3715;DHT22;1873;49.988;8.674;2022-11-24T10:58:32;10.50;99.90
3715;DHT22;1873;49.988;8.674;2022-11-24T11:01:19;10.50;99.90
3715;DHT22;1873;49.988;8.674;2022-11-24T11:03:55;10.60;99.90
3715;DHT22;1873;49.988;8.674;2022-11-24T11:06:25;10.70;99.90
3715;DHT22;1873;49.988;8.674;2022-11-24T11:09:15;10.90;99.90
3715;DHT22;1873;49.988;8.674;2022-11-24T11:11:45;11.10;99.90
3715;DHT22;1873;49.988;8.674;2022-11-24T11:14:29;11.20;99.90
3715;DHT22;1873;49.988;8.674;2022-11-24T11:16:58;11.20;99.90
3715;DHT22;1873;49.988;8.674;2022-11-24T11:19:32;11.20;99.90
3715;DHT22;1873;49.988;8.674;2022-11-24T11:22:23;11.30;99.90
3715;DHT22;1873;49.988;8.674;2022-11-24T11:25:06;11.20;99.90
3715;DHT22;1873;49.988;8.674;2022-11-24T11:27:34;11.20;99.90
3715;DHT22;1873;49.988;8.674;2022-11-24T11:30:25;11.20;99.90
3715;DHT22;1873;49.988;8.674;2022-11-24T11:33:21;11.20;99.90
3715;DHT22;1873;49.988;8.674;2022-11-24T11:36:10;11.30;99.90
3715;DHT22;1873;49.988;8.674;2022-11-24T11:38:39;11.40;99.90
3715;DHT22;1873;49.988;8.674;2022-11-24T11:41:16;11.40;99.90
3715;DHT22;1873;49.988;8.674;2022-11-24T11:44:11;11.50;99.90
3715;DHT22;1873;49.988;8.674;2022-11-24T11:46:42;11.30;99.90
3715;DHT22;1873;49.988;8.674;2022-11-24T11:49:12;11.30;99.90
3715;DHT22;1873;49.988;8.674;2022-11-24T11:51:51;11.20;99.90
3715;DHT22;1873;49.988;8.674;2022-11-24T11:54:31;11.10;99.90
3715;DHT22;1873;49.988;8.674;2022-11-24T11:57:09;11.00;99.90
3715;DHT22;1873;49.988;8.674;2022-11-24T12:00:02;10.90;99.90
3715;DHT22;1873;49.988;8.674;2022-11-24T12:02:51;10.80;99.90
3715;DHT22;1873;49.988;8.674;2022-11-24T12:05:28;10.80;99.90
3715;DHT22;1873;49.988;8.674;2022-11-24T12:08:09;10.70;99.90
3715;DHT22;1873;49.988;8.674;2022-11-24T12:10:52;10.60;99.90
3715;DHT22;1873;49.988;8.674;2022-11-24T12:13:40;10.60;99.90
3715;DHT22;1873;49.988;8.674;2022-11-24T12:16:18;10.50;99.90
3715;DHT22;1873;49.988;8.674;2022-11-24T12:19:01;10.50;99.90
3715;DHT22;1873;49.988;8.674;2022-11-24T12:21:36;10.50;99.90
3715;DHT22;1873;49.988;8.674;2022-11-24T12:24:11;10.40;99.90
3715;DHT22;1873;49.988;8.674;2022-11-24T12:26:44;10.40;99.90
3715;DHT22;1873;49.988;8.674;2022-11-24T12:29:48;10.40;99.90
3715;DHT22;1873;49.988;8.674;2022-11-24T12:32:31;10.50;99.90
3715;DHT22;1873;49.988;8.674;2022-11-24T12:35:12;10.50;99.90
3715;DHT22;1873;49.988;8.674;2022-11-24T12:37:51;10.60;99.90
3715;DHT22;1873;49.988;8.674;2022-11-24T12:40:32;10.70;99.90
3715;DHT22;1873;49.988;8.674;2022-11-24T12:43:14;10.80;99.90
3715;DHT22;1873;49.988;8.674;2022-11-24T12:45:53;10.90;99.90
3715;DHT22;1873;49.988;8.674;2022-11-24T12:48:43;11.00;99.90
3715;DHT22;1873;49.988;8.674;2022-11-24T12:51:18;11.10;99.90
3715;DHT22;1873;49.988;8.674;2022-11-24T12:53:49;11.10;99.90
3715;DHT22;1873;49.988;8.674;2022-11-24T12:56:24;11.30;99.90
3715;DHT22;1873;49.988;8.674;2022-11-24T12:58:58;11.30;99.90
3715;DHT22;1873;49.988;8.674;2022-11-24T13:01:34;11.40;99.90
3715;DHT22;1873;49.988;8.674;2022-11-24T13:04:10;11.40;99.90
3715;DHT22;1873;49.988;8.674;2022-11-24T13:06:48;11.50;99.90
3715;DHT22;1873;49.988;8.674;2022-11-24T13:09:17;11.50;99.90
3715;DHT22;1873;49.988;8.674;2022-11-24T13:11:46;11.40;99.90
3715;DHT22;1873;49.988;8.674;2022-11-24T13:14:17;11.30;99.90
3715;DHT22;1873;49.988;8.674;2022-11-24T13:16:51;11.20;99.90
3715;DHT22;1873;49.988;8.674;2022-11-24T13:19:39;11.10;99.90
3715;DHT22;1873;49.988;8.674;2022-11-24T13:22:16;11.00;99.90
3715;DHT22;1873;49.988;8.674;2022-11-24T13:24:45;11.00;99.90
3715;DHT22;1873;49.988;8.674;2022-11-24T13:27:48;10.90;99.90
3715;DHT22;1873;49.988;8.674;2022-11-24T13:30:52;10.90;99.90
3715;DHT22;1873;49.988;8.674;2022-11-24T13:33:32;11.00;99.90
3715;DHT22;1873;49.988;8.674;2022-11-24T13:36:50;11.00;99.90
3715;DHT22;1873;49.988;8.674;2022-11-24T13:39:22;11.10;99.90
3715;DHT22;1873;49.988;8.674;2022-11-24T13:42:16;11.20;99.90
3715;DHT22;1873;49.988;8.674;2022-11-24T13:45:46;11.20;99.90
3715;DHT22;1873;49.988;8.674;2022-11-24T13:47:58;11.20;99.90
3715;DHT22;1873;49.988;8.674;2022-11-24T13:53:34;11.30;99.90
3715;DHT22;1873;49.988;8.674;2022-11-24T13:56:08;11.20;99.90
3715;DHT22;1873;49.988;8.674;2022-11-24T13:59:13;11.20;99.90
3715;DHT22;1873;49.988;8.674;2022-11-24T14:01:42;11.20;99.90
3715;DHT22;1873;49.988;8.674;2022-11-24T14:07:02;11.20;99.90
